sensor_id;sensor_type;location;lat;lon;timestamp;temperature;humidity
65858;SHT31;53776;47.242;18.674;2022-10-13T00:00:25;9.46;87.34
65858;SHT31;53776;47.242;18.674;2022-10-13T00:02:50;9.41;87.38
65858;SHT31;53776;47.242;18.674;2022-10-13T00:05:16;9.33;87.33
65858;SHT31;53776;47.242;18.674;2022-10-13T00:07:42;9.30;87.38
65858;SHT31;53776;47.242;18.674;2022-10-13T00:10:07;9.19;87.38
65858;SHT31;53776;47.242;18.674;2022-10-13T00:12:34;9.09;87.39
65858;SHT31;53776;47.242;18.674;2022-10-13T00:14:59;9.05;87.40
65858;SHT31;53776;47.242;18.674;2022-10-13T00:17:25;8.99;87.38
65858;SHT31;53776;47.242;18.674;2022-10-13T00:19:50;8.92;87.48
65858;SHT31;53776;47.242;18.674;2022-10-13T00:22:16;8.86;87.47
65858;SHT31;53776;47.242;18.674;2022-10-13T00:24:41;8.78;87.52
65858;SHT31;53776;47.242;18.674;2022-10-13T00:27:06;8.69;87.60
65858;SHT31;53776;47.242;18.674;2022-10-13T00:29:32;8.68;87.63
65858;SHT31;53776;47.242;18.674;2022-10-13T00:31:57;8.64;87.69
65858;SHT31;53776;47.242;18.674;2022-10-13T00:34:23;8.64;87.63
65858;SHT31;53776;47.242;18.674;2022-10-13T00:36:48;8.55;87.73
65858;SHT31;53776;47.242;18.674;2022-10-13T00:39:13;8.52;87.74
65858;SHT31;53776;47.242;18.674;2022-10-13T00:41:39;8.54;87.74
65858;SHT31;53776;47.242;18.674;2022-10-13T00:44:51;8.50;87.85
65858;SHT31;53776;47.242;18.674;2022-10-13T00:46:50;8.47;87.89
65858;SHT31;53776;47.242;18.674;2022-10-13T00:49:16;8.44;87.95
65858;SHT31;53776;47.242;18.674;2022-10-13T00:51:44;8.41;87.92
65858;SHT31;53776;47.242;18.674;2022-10-13T00:54:13;8.36;87.96
65858;SHT31;53776;47.242;18.674;2022-10-13T00:56:39;8.29;87.91
65858;SHT31;53776;47.242;18.674;2022-10-13T00:59:20;8.27;87.92
65858;SHT31;53776;47.242;18.674;2022-10-13T01:01:51;8.19;87.94
65858;SHT31;53776;47.242;18.674;2022-10-13T01:04:18;8.16;88.00
65858;SHT31;53776;47.242;18.674;2022-10-13T01:06:47;8.16;88.09
65858;SHT31;53776;47.242;18.674;2022-10-13T01:09:13;8.16;88.09
65858;SHT31;53776;47.242;18.674;2022-10-13T01:14:31;8.13;88.01
65858;SHT31;53776;47.242;18.674;2022-10-13T01:22:30;8.06;88.10
65858;SHT31;53776;47.242;18.674;2022-10-13T01:25:02;8.04;88.20
65858;SHT31;53776;47.242;18.674;2022-10-13T01:28:07;8.07;88.27
65858;SHT31;53776;47.242;18.674;2022-10-13T01:30:41;8.12;88.22
65858;SHT31;53776;47.242;18.674;2022-10-13T01:33:42;8.14;88.21
65858;SHT31;53776;47.242;18.674;2022-10-13T01:36:17;8.14;88.22
65858;SHT31;53776;47.242;18.674;2022-10-13T01:46:47;8.19;88.29
65858;SHT31;53776;47.242;18.674;2022-10-13T01:49:16;8.19;88.24
65858;SHT31;53776;47.242;18.674;2022-10-13T01:51:44;8.20;88.25
65858;SHT31;53776;47.242;18.674;2022-10-13T01:54:09;8.22;88.22
65858;SHT31;53776;47.242;18.674;2022-10-13T01:56:35;8.20;88.24
65858;SHT31;53776;47.242;18.674;2022-10-13T01:59:04;8.17;88.31
65858;SHT31;53776;47.242;18.674;2022-10-13T02:04:36;8.09;88.36
65858;SHT31;53776;47.242;18.674;2022-10-13T02:10:27;7.97;88.48
65858;SHT31;53776;47.242;18.674;2022-10-13T02:13:02;7.94;88.41
65858;SHT31;53776;47.242;18.674;2022-10-13T02:15:36;7.96;88.39
65858;SHT31;53776;47.242;18.674;2022-10-13T02:18:03;7.92;88.34
65858;SHT31;53776;47.242;18.674;2022-10-13T02:20:29;7.90;88.38
65858;SHT31;53776;47.242;18.674;2022-10-13T02:23:00;7.85;88.33
65858;SHT31;53776;47.242;18.674;2022-10-13T02:25:28;7.85;88.36
65858;SHT31;53776;47.242;18.674;2022-10-13T02:27:54;7.79;88.31
65858;SHT31;53776;47.242;18.674;2022-10-13T02:30:25;7.78;88.22
65858;SHT31;53776;47.242;18.674;2022-10-13T02:32:51;7.73;88.23
65858;SHT31;53776;47.242;18.674;2022-10-13T02:35:16;7.66;88.19
65858;SHT31;53776;47.242;18.674;2022-10-13T02:37:41;7.62;88.23
65858;SHT31;53776;47.242;18.674;2022-10-13T02:40:07;7.59;88.36
65858;SHT31;53776;47.242;18.674;2022-10-13T02:42:33;7.64;88.33
65858;SHT31;53776;47.242;18.674;2022-10-13T02:44:58;7.61;88.25
65858;SHT31;53776;47.242;18.674;2022-10-13T02:47:23;7.54;88.34
65858;SHT31;53776;47.242;18.674;2022-10-13T02:49:49;7.54;88.39
65858;SHT31;53776;47.242;18.674;2022-10-13T02:52:14;7.50;88.51
65858;SHT31;53776;47.242;18.674;2022-10-13T02:54:40;7.54;88.47
65858;SHT31;53776;47.242;18.674;2022-10-13T02:57:05;7.59;88.41
65858;SHT31;53776;47.242;18.674;2022-10-13T02:59:30;7.59;88.43
65858;SHT31;53776;47.242;18.674;2022-10-13T03:01:56;7.55;88.44
65858;SHT31;53776;47.242;18.674;2022-10-13T03:04:21;7.51;88.52
65858;SHT31;53776;47.242;18.674;2022-10-13T03:06:47;7.50;88.61
65858;SHT31;53776;47.242;18.674;2022-10-13T03:09:12;7.47;88.65
65858;SHT31;53776;47.242;18.674;2022-10-13T03:11:38;7.51;88.60
65858;SHT31;53776;47.242;18.674;2022-10-13T03:14:03;7.50;88.70
65858;SHT31;53776;47.242;18.674;2022-10-13T03:16:28;7.47;88.68
65858;SHT31;53776;47.242;18.674;2022-10-13T03:18:54;7.43;88.68
65858;SHT31;53776;47.242;18.674;2022-10-13T03:21:19;7.37;88.60
65858;SHT31;53776;47.242;18.674;2022-10-13T03:23:45;7.35;88.58
65858;SHT31;53776;47.242;18.674;2022-10-13T03:26:10;7.32;88.59
65858;SHT31;53776;47.242;18.674;2022-10-13T03:28:36;7.28;88.53
65858;SHT31;53776;47.242;18.674;2022-10-13T03:31:03;7.23;88.64
65858;SHT31;53776;47.242;18.674;2022-10-13T03:33:29;7.20;88.66
65858;SHT31;53776;47.242;18.674;2022-10-13T03:36:00;7.20;88.71
65858;SHT31;53776;47.242;18.674;2022-10-13T03:38:31;7.16;88.71
65858;SHT31;53776;47.242;18.674;2022-10-13T03:41:06;7.17;88.58
65858;SHT31;53776;47.242;18.674;2022-10-13T03:43:33;7.16;88.63
65858;SHT31;53776;47.242;18.674;2022-10-13T03:46:00;7.13;88.58
65858;SHT31;53776;47.242;18.674;2022-10-13T03:48:27;7.08;88.60
65858;SHT31;53776;47.242;18.674;2022-10-13T03:50:53;7.03;88.66
65858;SHT31;53776;47.242;18.674;2022-10-13T03:53:19;7.00;88.62
65858;SHT31;53776;47.242;18.674;2022-10-13T03:55:53;7.00;88.70
65858;SHT31;53776;47.242;18.674;2022-10-13T03:58:19;7.01;88.58
65858;SHT31;53776;47.242;18.674;2022-10-13T04:00:45;7.03;88.63
65858;SHT31;53776;47.242;18.674;2022-10-13T04:03:10;7.01;88.73
65858;SHT31;53776;47.242;18.674;2022-10-13T04:05:36;6.99;88.67
65858;SHT31;53776;47.242;18.674;2022-10-13T04:08:01;6.96;88.70
65858;SHT31;53776;47.242;18.674;2022-10-13T04:10:27;6.93;88.72
65858;SHT31;53776;47.242;18.674;2022-10-13T04:12:52;6.92;88.74
65858;SHT31;53776;47.242;18.674;2022-10-13T04:15:18;6.90;88.68
65858;SHT31;53776;47.242;18.674;2022-10-13T04:17:43;6.87;88.67
65858;SHT31;53776;47.242;18.674;2022-10-13T04:20:10;6.86;88.61
65858;SHT31;53776;47.242;18.674;2022-10-13T04:22:36;6.89;88.62
65858;SHT31;53776;47.242;18.674;2022-10-13T04:25:02;6.83;88.64
65858;SHT31;53776;47.242;18.674;2022-10-13T04:27:27;6.82;88.65
65858;SHT31;53776;47.242;18.674;2022-10-13T04:29:53;6.80;88.69
65858;SHT31;53776;47.242;18.674;2022-10-13T04:32:18;6.76;88.69
65858;SHT31;53776;47.242;18.674;2022-10-13T04:34:44;6.77;88.71
65858;SHT31;53776;47.242;18.674;2022-10-13T04:37:09;6.79;88.69
65858;SHT31;53776;47.242;18.674;2022-10-13T04:39:35;6.73;88.74
65858;SHT31;53776;47.242;18.674;2022-10-13T04:42:00;6.71;88.69
65858;SHT31;53776;47.242;18.674;2022-10-13T04:44:25;6.68;88.71
65858;SHT31;53776;47.242;18.674;2022-10-13T04:46:51;6.66;88.71
65858;SHT31;53776;47.242;18.674;2022-10-13T04:49:16;6.62;88.65
65858;SHT31;53776;47.242;18.674;2022-10-13T04:51:42;6.64;88.70
65858;SHT31;53776;47.242;18.674;2022-10-13T04:54:08;6.61;88.67
65858;SHT31;53776;47.242;18.674;2022-10-13T04:56:34;6.58;88.61
65858;SHT31;53776;47.242;18.674;2022-10-13T04:59:01;6.56;88.65
65858;SHT31;53776;47.242;18.674;2022-10-13T05:01:29;6.53;88.61
65858;SHT31;53776;47.242;18.674;2022-10-13T05:03:59;6.52;88.60
65858;SHT31;53776;47.242;18.674;2022-10-13T05:06:28;6.52;88.64
65858;SHT31;53776;47.242;18.674;2022-10-13T05:08:54;6.52;88.69
65858;SHT31;53776;47.242;18.674;2022-10-13T05:11:20;6.52;88.59
65858;SHT31;53776;47.242;18.674;2022-10-13T05:13:46;6.56;88.56
65858;SHT31;53776;47.242;18.674;2022-10-13T05:16:14;6.55;88.56
65858;SHT31;53776;47.242;18.674;2022-10-13T05:18:39;6.53;88.61
65858;SHT31;53776;47.242;18.674;2022-10-13T05:21:10;6.58;88.64
65858;SHT31;53776;47.242;18.674;2022-10-13T05:23:36;6.62;88.61
65858;SHT31;53776;47.242;18.674;2022-10-13T05:26:08;6.69;88.54
65858;SHT31;53776;47.242;18.674;2022-10-13T05:28:34;6.72;88.48
65858;SHT31;53776;47.242;18.674;2022-10-13T05:31:12;6.76;88.47
65858;SHT31;53776;47.242;18.674;2022-10-13T05:33:38;6.77;88.54
65858;SHT31;53776;47.242;18.674;2022-10-13T05:36:06;6.85;88.54
65858;SHT31;53776;47.242;18.674;2022-10-13T05:38:31;6.87;88.54
65858;SHT31;53776;47.242;18.674;2022-10-13T05:41:02;6.99;88.56
65858;SHT31;53776;47.242;18.674;2022-10-13T05:43:29;7.08;88.49
65858;SHT31;53776;47.242;18.674;2022-10-13T05:45:55;7.11;88.54
65858;SHT31;53776;47.242;18.674;2022-10-13T05:48:20;7.14;88.54
65858;SHT31;53776;47.242;18.674;2022-10-13T05:50:46;7.28;88.47
65858;SHT31;53776;47.242;18.674;2022-10-13T05:53:11;7.32;88.52
65858;SHT31;53776;47.242;18.674;2022-10-13T05:55:37;7.41;88.46
65858;SHT31;53776;47.242;18.674;2022-10-13T05:58:02;7.48;88.59
65858;SHT31;53776;47.242;18.674;2022-10-13T06:00:28;7.64;88.68
65858;SHT31;53776;47.242;18.674;2022-10-13T06:03:03;7.78;88.61
65858;SHT31;53776;47.242;18.674;2022-10-13T06:05:31;7.93;88.52
65858;SHT31;53776;47.242;18.674;2022-10-13T06:07:57;8.09;88.45
65858;SHT31;53776;47.242;18.674;2022-10-13T06:10:23;8.23;88.48
65858;SHT31;53776;47.242;18.674;2022-10-13T06:12:49;8.38;88.42
65858;SHT31;53776;47.242;18.674;2022-10-13T06:15:15;8.64;88.30
65858;SHT31;53776;47.242;18.674;2022-10-13T06:17:41;8.98;88.21
65858;SHT31;53776;47.242;18.674;2022-10-13T06:20:07;9.67;87.70
65858;SHT31;53776;47.242;18.674;2022-10-13T06:22:33;10.80;85.93
65858;SHT31;53776;47.242;18.674;2022-10-13T06:24:59;11.36;84.65
65858;SHT31;53776;47.242;18.674;2022-10-13T06:27:25;11.94;83.68
65858;SHT31;53776;47.242;18.674;2022-10-13T06:29:50;12.85;81.26
65858;SHT31;53776;47.242;18.674;2022-10-13T06:32:15;13.53;78.92
65858;SHT31;53776;47.242;18.674;2022-10-13T06:34:41;13.83;77.37
65858;SHT31;53776;47.242;18.674;2022-10-13T06:37:06;14.10;77.95
65858;SHT31;53776;47.242;18.674;2022-10-13T06:39:32;14.54;76.84
65858;SHT31;53776;47.242;18.674;2022-10-13T06:41:57;14.34;76.66
65858;SHT31;53776;47.242;18.674;2022-10-13T06:44:23;13.92;76.27
65858;SHT31;53776;47.242;18.674;2022-10-13T06:46:48;14.33;75.54
65858;SHT31;53776;47.242;18.674;2022-10-13T06:49:14;15.06;73.77
65858;SHT31;53776;47.242;18.674;2022-10-13T06:51:39;15.67;71.85
65858;SHT31;53776;47.242;18.674;2022-10-13T06:54:04;16.30;70.28
65858;SHT31;53776;47.242;18.674;2022-10-13T06:56:30;16.97;67.98
65858;SHT31;53776;47.242;18.674;2022-10-13T06:58:55;17.45;66.72
65858;SHT31;53776;47.242;18.674;2022-10-13T07:01:21;18.02;65.27
65858;SHT31;53776;47.242;18.674;2022-10-13T07:03:50;18.44;63.92
65858;SHT31;53776;47.242;18.674;2022-10-13T07:06:16;18.96;61.92
65858;SHT31;53776;47.242;18.674;2022-10-13T07:08:42;19.33;60.84
65858;SHT31;53776;47.242;18.674;2022-10-13T07:11:09;19.61;60.14
65858;SHT31;53776;47.242;18.674;2022-10-13T07:13:36;20.02;58.85
65858;SHT31;53776;47.242;18.674;2022-10-13T07:16:02;20.09;60.22
65858;SHT31;53776;47.242;18.674;2022-10-13T07:18:28;20.53;57.70
65858;SHT31;53776;47.242;18.674;2022-10-13T07:20:56;20.73;58.49
65858;SHT31;53776;47.242;18.674;2022-10-13T07:23:21;20.90;59.63
65858;SHT31;53776;47.242;18.674;2022-10-13T07:25:47;21.38;54.48
65858;SHT31;53776;47.242;18.674;2022-10-13T07:28:12;21.30;55.70
65858;SHT31;53776;47.242;18.674;2022-10-13T07:30:38;21.35;57.36
65858;SHT31;53776;47.242;18.674;2022-10-13T07:33:05;21.72;52.48
65858;SHT31;53776;47.242;18.674;2022-10-13T07:35:30;21.97;51.51
65858;SHT31;53776;47.242;18.674;2022-10-13T07:37:56;21.86;52.25
65858;SHT31;53776;47.242;18.674;2022-10-13T07:40:21;22.01;49.45
65858;SHT31;53776;47.242;18.674;2022-10-13T07:42:47;22.30;51.57
65858;SHT31;53776;47.242;18.674;2022-10-13T07:45:13;21.78;50.00
65858;SHT31;53776;47.242;18.674;2022-10-13T07:47:38;22.47;49.98
65858;SHT31;53776;47.242;18.674;2022-10-13T07:50:04;22.52;49.79
65858;SHT31;53776;47.242;18.674;2022-10-13T07:52:30;22.73;48.89
65858;SHT31;53776;47.242;18.674;2022-10-13T07:54:55;22.91;47.58
65858;SHT31;53776;47.242;18.674;2022-10-13T07:57:24;22.79;48.18
65858;SHT31;53776;47.242;18.674;2022-10-13T07:59:50;22.73;47.89
65858;SHT31;53776;47.242;18.674;2022-10-13T08:02:15;23.30;47.38
65858;SHT31;53776;47.242;18.674;2022-10-13T08:04:40;23.14;44.76
65858;SHT31;53776;47.242;18.674;2022-10-13T08:07:06;23.47;45.82
65858;SHT31;53776;47.242;18.674;2022-10-13T08:09:32;22.92;43.71
65858;SHT31;53776;47.242;18.674;2022-10-13T08:11:57;22.65;45.24
65858;SHT31;53776;47.242;18.674;2022-10-13T08:14:23;22.27;45.55
65858;SHT31;53776;47.242;18.674;2022-10-13T08:16:48;21.65;46.16
65858;SHT31;53776;47.242;18.674;2022-10-13T08:19:15;22.03;46.22
65858;SHT31;53776;47.242;18.674;2022-10-13T08:21:41;21.97;48.47
65858;SHT31;53776;47.242;18.674;2022-10-13T08:24:12;21.60;47.64
65858;SHT31;53776;47.242;18.674;2022-10-13T08:26:39;20.93;47.54
65858;SHT31;53776;47.242;18.674;2022-10-13T08:29:04;20.84;48.98
65858;SHT31;53776;47.242;18.674;2022-10-13T08:31:30;20.40;52.60
65858;SHT31;53776;47.242;18.674;2022-10-13T08:33:55;20.06;53.87
65858;SHT31;53776;47.242;18.674;2022-10-13T08:36:21;19.60;52.57
65858;SHT31;53776;47.242;18.674;2022-10-13T08:38:46;19.05;52.84
65858;SHT31;53776;47.242;18.674;2022-10-13T08:41:17;18.94;53.12
65858;SHT31;53776;47.242;18.674;2022-10-13T08:43:52;18.64;53.73
65858;SHT31;53776;47.242;18.674;2022-10-13T08:46:27;18.67;56.32
65858;SHT31;53776;47.242;18.674;2022-10-13T08:48:55;18.82;55.84
65858;SHT31;53776;47.242;18.674;2022-10-13T08:51:21;18.55;54.42
65858;SHT31;53776;47.242;18.674;2022-10-13T08:53:47;18.67;54.85
65858;SHT31;53776;47.242;18.674;2022-10-13T08:58:42;18.87;55.51
65858;SHT31;53776;47.242;18.674;2022-10-13T09:06:36;18.95;56.77
65858;SHT31;53776;47.242;18.674;2022-10-13T09:09:13;19.23;56.33
65858;SHT31;53776;47.242;18.674;2022-10-13T09:11:42;19.50;55.58
65858;SHT31;53776;47.242;18.674;2022-10-13T09:14:10;19.57;54.03
65858;SHT31;53776;47.242;18.674;2022-10-13T09:16:40;19.63;52.54
65858;SHT31;53776;47.242;18.674;2022-10-13T09:19:33;19.53;52.51
65858;SHT31;53776;47.242;18.674;2022-10-13T09:22:25;19.20;51.61
65858;SHT31;53776;47.242;18.674;2022-10-13T09:30:33;19.24;51.76
65858;SHT31;53776;47.242;18.674;2022-10-13T09:35:43;19.19;53.52
65858;SHT31;53776;47.242;18.674;2022-10-13T09:38:16;19.19;52.11
65858;SHT31;53776;47.242;18.674;2022-10-13T09:40:43;19.45;52.14
65858;SHT31;53776;47.242;18.674;2022-10-13T09:43:26;19.36;52.24
65858;SHT31;53776;47.242;18.674;2022-10-13T09:45:52;19.58;52.29
65858;SHT31;53776;47.242;18.674;2022-10-13T09:48:25;19.37;52.23
65858;SHT31;53776;47.242;18.674;2022-10-13T09:50:52;19.57;53.64
65858;SHT31;53776;47.242;18.674;2022-10-13T09:53:30;19.63;52.87
65858;SHT31;53776;47.242;18.674;2022-10-13T09:56:20;19.87;52.00
65858;SHT31;53776;47.242;18.674;2022-10-13T09:59:12;19.57;52.12
65858;SHT31;53776;47.242;18.674;2022-10-13T10:01:43;19.74;52.35
65858;SHT31;53776;47.242;18.674;2022-10-13T10:04:16;19.87;51.77
65858;SHT31;53776;47.242;18.674;2022-10-13T10:06:44;20.08;54.09
65858;SHT31;53776;47.242;18.674;2022-10-13T10:11:41;20.11;50.93
65858;SHT31;53776;47.242;18.674;2022-10-13T10:14:26;20.06;54.20
65858;SHT31;53776;47.242;18.674;2022-10-13T10:20:08;20.29;53.74
65858;SHT31;53776;47.242;18.674;2022-10-13T10:25:36;20.46;51.87
65858;SHT31;53776;47.242;18.674;2022-10-13T10:28:15;20.45;51.53
65858;SHT31;53776;47.242;18.674;2022-10-13T10:30:47;20.14;52.42
65858;SHT31;53776;47.242;18.674;2022-10-13T10:36:22;20.19;51.98
65858;SHT31;53776;47.242;18.674;2022-10-13T10:41:57;20.59;53.39
65858;SHT31;53776;47.242;18.674;2022-10-13T10:44:31;20.66;52.98
65858;SHT31;53776;47.242;18.674;2022-10-13T10:47:03;20.49;51.92
65858;SHT31;53776;47.242;18.674;2022-10-13T10:49:35;20.59;51.43
65858;SHT31;53776;47.242;18.674;2022-10-13T10:52:09;20.60;50.32
65858;SHT31;53776;47.242;18.674;2022-10-13T10:54:48;20.72;52.07
65858;SHT31;53776;47.242;18.674;2022-10-13T10:57:38;20.98;53.64
65858;SHT31;53776;47.242;18.674;2022-10-13T11:00:14;21.22;50.74
65858;SHT31;53776;47.242;18.674;2022-10-13T11:05:14;21.18;51.63
65858;SHT31;53776;47.242;18.674;2022-10-13T11:12:44;21.41;51.94
65858;SHT31;53776;47.242;18.674;2022-10-13T11:15:12;21.43;50.27
65858;SHT31;53776;47.242;18.674;2022-10-13T11:17:41;21.31;52.16
65858;SHT31;53776;47.242;18.674;2022-10-13T11:53:10;21.96;50.86
65858;SHT31;53776;47.242;18.674;2022-10-13T11:55:55;22.08;50.50
65858;SHT31;53776;47.242;18.674;2022-10-13T11:58:26;22.21;50.74
65858;SHT31;53776;47.242;18.674;2022-10-13T12:01:00;22.20;49.23
65858;SHT31;53776;47.242;18.674;2022-10-13T12:08:56;22.61;48.40
65858;SHT31;53776;47.242;18.674;2022-10-13T12:11:27;22.64;50.19
65858;SHT31;53776;47.242;18.674;2022-10-13T12:13:54;22.44;48.54
65858;SHT31;53776;47.242;18.674;2022-10-13T12:16:20;22.54;49.39
65858;SHT31;53776;47.242;18.674;2022-10-13T12:18:46;22.73;50.28
65858;SHT31;53776;47.242;18.674;2022-10-13T12:21:15;22.58;48.49
65858;SHT31;53776;47.242;18.674;2022-10-13T12:23:42;22.41;48.29
65858;SHT31;53776;47.242;18.674;2022-10-13T12:26:15;22.33;48.74
65858;SHT31;53776;47.242;18.674;2022-10-13T12:29:02;22.14;50.46
65858;SHT31;53776;47.242;18.674;2022-10-13T12:31:38;22.07;49.22
65858;SHT31;53776;47.242;18.674;2022-10-13T12:37:03;22.06;49.43
65858;SHT31;53776;47.242;18.674;2022-10-13T12:39:29;21.92;49.38
65858;SHT31;53776;47.242;18.674;2022-10-13T12:41:56;21.92;51.26
65858;SHT31;53776;47.242;18.674;2022-10-13T12:44:28;22.03;49.69
65858;SHT31;53776;47.242;18.674;2022-10-13T12:46:56;22.47;49.92
65858;SHT31;53776;47.242;18.674;2022-10-13T12:49:35;22.13;49.39
65858;SHT31;53776;47.242;18.674;2022-10-13T12:54:37;21.66;50.51
65858;SHT31;53776;47.242;18.674;2022-10-13T12:57:14;21.60;50.38
65858;SHT31;53776;47.242;18.674;2022-10-13T12:59:41;21.70;50.62
65858;SHT31;53776;47.242;18.674;2022-10-13T13:02:20;21.90;50.99
65858;SHT31;53776;47.242;18.674;2022-10-13T13:04:48;22.30;50.51
65858;SHT31;53776;47.242;18.674;2022-10-13T13:07:27;22.33;49.46
65858;SHT31;53776;47.242;18.674;2022-10-13T13:12:40;22.37;49.01
65858;SHT31;53776;47.242;18.674;2022-10-13T13:17:42;22.57;49.72
65858;SHT31;53776;47.242;18.674;2022-10-13T13:20:25;22.47;49.75
65858;SHT31;53776;47.242;18.674;2022-10-13T13:22:51;22.54;48.50
65858;SHT31;53776;47.242;18.674;2022-10-13T13:25:17;22.34;49.92
65858;SHT31;53776;47.242;18.674;2022-10-13T13:27:43;22.13;49.01
65858;SHT31;53776;47.242;18.674;2022-10-13T13:30:13;22.33;48.98
65858;SHT31;53776;47.242;18.674;2022-10-13T13:32:39;22.34;49.91
65858;SHT31;53776;47.242;18.674;2022-10-13T13:35:05;22.36;49.23
65858;SHT31;53776;47.242;18.674;2022-10-13T13:37:37;22.27;49.07
65858;SHT31;53776;47.242;18.674;2022-10-13T13:40:04;22.22;49.30
65858;SHT31;53776;47.242;18.674;2022-10-13T13:42:30;22.30;49.12
65858;SHT31;53776;47.242;18.674;2022-10-13T13:44:56;22.24;48.68
65858;SHT31;53776;47.242;18.674;2022-10-13T13:47:23;22.43;48.82
65858;SHT31;53776;47.242;18.674;2022-10-13T13:49:50;22.52;48.04
65858;SHT31;53776;47.242;18.674;2022-10-13T13:52:17;22.85;47.93
65858;SHT31;53776;47.242;18.674;2022-10-13T13:54:43;23.14;47.23
65858;SHT31;53776;47.242;18.674;2022-10-13T13:57:10;23.17;46.75
65858;SHT31;53776;47.242;18.674;2022-10-13T13:59:36;23.05;48.08
65858;SHT31;53776;47.242;18.674;2022-10-13T14:02:02;23.20;46.35
65858;SHT31;53776;47.242;18.674;2022-10-13T14:04:28;23.02;47.01
65858;SHT31;53776;47.242;18.674;2022-10-13T14:06:54;23.36;48.26
65858;SHT31;53776;47.242;18.674;2022-10-13T14:09:20;23.49;47.49
65858;SHT31;53776;47.242;18.674;2022-10-13T14:11:45;23.51;47.61
65858;SHT31;53776;47.242;18.674;2022-10-13T14:14:11;23.42;46.92
65858;SHT31;53776;47.242;18.674;2022-10-13T14:16:36;23.51;46.71
65858;SHT31;53776;47.242;18.674;2022-10-13T14:19:02;23.36;45.80
65858;SHT31;53776;47.242;18.674;2022-10-13T14:21:27;23.28;45.61
65858;SHT31;53776;47.242;18.674;2022-10-13T14:23:53;23.30;47.00
65858;SHT31;53776;47.242;18.674;2022-10-13T14:26:19;23.23;47.73
65858;SHT31;53776;47.242;18.674;2022-10-13T14:28:44;23.05;46.95
65858;SHT31;53776;47.242;18.674;2022-10-13T14:31:10;22.78;48.38
65858;SHT31;53776;47.242;18.674;2022-10-13T14:33:37;22.48;49.31
65858;SHT31;53776;47.242;18.674;2022-10-13T14:36:05;22.31;48.96
65858;SHT31;53776;47.242;18.674;2022-10-13T14:38:32;22.13;49.22
65858;SHT31;53776;47.242;18.674;2022-10-13T14:41:02;21.93;50.93
65858;SHT31;53776;47.242;18.674;2022-10-13T14:43:28;21.60;50.69
65858;SHT31;53776;47.242;18.674;2022-10-13T14:45:54;21.41;50.61
65858;SHT31;53776;47.242;18.674;2022-10-13T14:48:20;21.30;51.87
65858;SHT31;53776;47.242;18.674;2022-10-13T14:50:45;21.15;51.77
65858;SHT31;53776;47.242;18.674;2022-10-13T14:53:11;21.04;51.81
65858;SHT31;53776;47.242;18.674;2022-10-13T14:55:43;20.93;53.33
65858;SHT31;53776;47.242;18.674;2022-10-13T14:58:10;20.88;52.87
65858;SHT31;53776;47.242;18.674;2022-10-13T15:00:36;20.80;55.15
65858;SHT31;53776;47.242;18.674;2022-10-13T15:03:02;20.57;53.90
65858;SHT31;53776;47.242;18.674;2022-10-13T15:05:27;20.53;54.72
65858;SHT31;53776;47.242;18.674;2022-10-13T15:07:53;20.49;55.45
65858;SHT31;53776;47.242;18.674;2022-10-13T15:10:18;20.32;55.14
65858;SHT31;53776;47.242;18.674;2022-10-13T15:12:44;20.24;55.85
65858;SHT31;53776;47.242;18.674;2022-10-13T15:15:09;20.09;57.26
65858;SHT31;53776;47.242;18.674;2022-10-13T15:17:35;19.95;57.65
65858;SHT31;53776;47.242;18.674;2022-10-13T15:20:03;19.81;59.68
65858;SHT31;53776;47.242;18.674;2022-10-13T15:22:29;19.57;60.45
65858;SHT31;53776;47.242;18.674;2022-10-13T15:24:55;19.40;60.80
65858;SHT31;53776;47.242;18.674;2022-10-13T15:27:21;19.29;61.68
65858;SHT31;53776;47.242;18.674;2022-10-13T15:29:46;19.09;62.94
65858;SHT31;53776;47.242;18.674;2022-10-13T15:32:14;18.88;63.92
65858;SHT31;53776;47.242;18.674;2022-10-13T15:34:42;18.61;64.42
65858;SHT31;53776;47.242;18.674;2022-10-13T15:37:09;18.41;65.17
65858;SHT31;53776;47.242;18.674;2022-10-13T15:39:34;18.23;65.99
65858;SHT31;53776;47.242;18.674;2022-10-13T15:42:00;18.02;67.00
65858;SHT31;53776;47.242;18.674;2022-10-13T15:44:26;17.78;68.16
65858;SHT31;53776;47.242;18.674;2022-10-13T15:46:51;17.59;68.05
65858;SHT31;53776;47.242;18.674;2022-10-13T15:49:21;17.35;69.16
65858;SHT31;53776;47.242;18.674;2022-10-13T15:51:47;17.18;69.80
65858;SHT31;53776;47.242;18.674;2022-10-13T15:54:13;16.99;70.09
65858;SHT31;53776;47.242;18.674;2022-10-13T15:56:39;16.80;70.60
65858;SHT31;53776;47.242;18.674;2022-10-13T15:59:04;16.62;70.91
65858;SHT31;53776;47.242;18.674;2022-10-13T16:01:30;16.41;71.86
65858;SHT31;53776;47.242;18.674;2022-10-13T16:03:55;16.24;72.00
65858;SHT31;53776;47.242;18.674;2022-10-13T16:06:21;16.09;72.17
65858;SHT31;53776;47.242;18.674;2022-10-13T16:08:47;15.90;71.57
65858;SHT31;53776;47.242;18.674;2022-10-13T16:11:15;15.69;72.13
65858;SHT31;53776;47.242;18.674;2022-10-13T16:13:45;15.54;73.08
65858;SHT31;53776;47.242;18.674;2022-10-13T16:16:10;15.44;73.41
65858;SHT31;53776;47.242;18.674;2022-10-13T16:18:37;15.29;73.79
65858;SHT31;53776;47.242;18.674;2022-10-13T16:21:13;15.11;74.72
65858;SHT31;53776;47.242;18.674;2022-10-13T16:23:40;14.95;75.10
65858;SHT31;53776;47.242;18.674;2022-10-13T16:26:06;14.84;75.42
65858;SHT31;53776;47.242;18.674;2022-10-13T16:28:32;14.71;76.35
65858;SHT31;53776;47.242;18.674;2022-10-13T16:31:02;14.57;76.43
65858;SHT31;53776;47.242;18.674;2022-10-13T16:33:28;14.44;77.03
65858;SHT31;53776;47.242;18.674;2022-10-13T16:36:03;14.38;77.36
65858;SHT31;53776;47.242;18.674;2022-10-13T16:38:29;14.27;77.81
65858;SHT31;53776;47.242;18.674;2022-10-13T16:40:55;14.16;77.89
65858;SHT31;53776;47.242;18.674;2022-10-13T16:43:20;14.03;78.39
65858;SHT31;53776;47.242;18.674;2022-10-13T16:45:57;13.90;78.85
65858;SHT31;53776;47.242;18.674;2022-10-13T16:48:23;13.81;79.14
65858;SHT31;53776;47.242;18.674;2022-10-13T16:50:48;13.72;79.55
65858;SHT31;53776;47.242;18.674;2022-10-13T16:53:14;13.62;79.76
65858;SHT31;53776;47.242;18.674;2022-10-13T16:55:39;13.51;80.13
65858;SHT31;53776;47.242;18.674;2022-10-13T16:58:05;13.40;80.35
65858;SHT31;53776;47.242;18.674;2022-10-13T17:00:30;13.28;80.56
65858;SHT31;53776;47.242;18.674;2022-10-13T17:02:56;13.24;80.57
65858;SHT31;53776;47.242;18.674;2022-10-13T17:05:21;13.11;80.96
65858;SHT31;53776;47.242;18.674;2022-10-13T17:07:47;13.06;81.32
65858;SHT31;53776;47.242;18.674;2022-10-13T17:10:12;13.00;81.60
65858;SHT31;53776;47.242;18.674;2022-10-13T17:12:38;12.92;81.67
65858;SHT31;53776;47.242;18.674;2022-10-13T17:15:04;12.88;81.84
65858;SHT31;53776;47.242;18.674;2022-10-13T17:17:29;12.85;82.22